createdAt,value
2022-12-27T00:01:44.321Z,3.30
2022-12-27T00:04:41.253Z,3.10
2022-12-27T00:07:38.057Z,3.00
2022-12-27T00:10:35.481Z,3.10
2022-12-27T00:13:32.395Z,2.90
2022-12-27T00:16:29.747Z,3.00
2022-12-27T00:19:26.630Z,3.00
2022-12-27T00:22:23.427Z,2.70
2022-12-27T00:25:20.225Z,2.80
2022-12-27T00:28:17.726Z,2.90
2022-12-27T00:31:15.720Z,2.90
2022-12-27T00:34:12.565Z,2.80
2022-12-27T00:37:09.372Z,2.60
2022-12-27T00:40:06.906Z,2.70
2022-12-27T00:43:03.728Z,2.60
2022-12-27T00:46:00.847Z,2.50
2022-12-27T00:48:58.688Z,2.60
2022-12-27T00:51:55.550Z,2.50
2022-12-27T00:54:52.359Z,2.50
2022-12-27T00:57:49.145Z,2.30
2022-12-27T01:00:46.311Z,2.30
2022-12-27T01:03:43.721Z,2.30
2022-12-27T01:06:40.657Z,2.20
2022-12-27T01:09:37.536Z,2.30
2022-12-27T01:12:36.471Z,2.10
2022-12-27T01:15:33.612Z,1.90
2022-12-27T01:18:30.418Z,1.90
2022-12-27T01:21:30.598Z,1.90
2022-12-27T01:24:27.654Z,2.10
2022-12-27T01:27:24.475Z,2.00
2022-12-27T01:30:21.277Z,2.00
2022-12-27T01:33:18.070Z,1.90
2022-12-27T01:36:20.684Z,1.90
2022-12-27T01:39:17.528Z,1.90
2022-12-27T01:42:36.072Z,2.00
2022-12-27T01:45:36.886Z,1.70
2022-12-27T01:48:33.823Z,1.90
2022-12-27T01:51:30.672Z,1.90
2022-12-27T01:54:27.906Z,1.90
2022-12-27T01:57:24.716Z,2.00
2022-12-27T02:00:22.677Z,2.10
2022-12-27T02:03:37.378Z,1.90
2022-12-27T02:06:35.933Z,2.00
2022-12-27T02:09:44.618Z,2.00
2022-12-27T02:12:41.716Z,1.90
2022-12-27T02:15:38.770Z,1.90
2022-12-27T02:18:35.693Z,1.70
2022-12-27T02:22:24.626Z,1.70
2022-12-27T02:25:45.353Z,1.70
2022-12-27T02:29:12.624Z,1.70
2022-12-27T02:32:27.854Z,1.70
2022-12-27T02:35:38.031Z,1.60
2022-12-27T02:38:39.835Z,1.60
2022-12-27T02:41:55.561Z,1.60
2022-12-27T02:45:18.672Z,1.60
2022-12-27T02:48:34.815Z,1.50
2022-12-27T02:52:09.270Z,1.60
2022-12-27T02:55:25.530Z,1.80
2022-12-27T02:59:04.741Z,1.70
2022-12-27T03:02:32.742Z,1.70
2022-12-27T03:06:10.625Z,1.70
2022-12-27T03:10:08.779Z,1.80
2022-12-27T03:13:55.704Z,1.80
2022-12-27T03:17:00.009Z,1.70
2022-12-27T03:20:22.494Z,1.70
2022-12-27T03:23:38.302Z,1.70
2022-12-27T03:26:37.893Z,1.80
2022-12-27T03:29:53.596Z,1.80
2022-12-27T03:33:14.925Z,1.80
2022-12-27T03:36:44.202Z,1.70
2022-12-27T03:40:07.523Z,1.70
2022-12-27T03:43:13.421Z,1.60
2022-12-27T03:46:33.652Z,1.50
2022-12-27T03:49:32.446Z,1.50
2022-12-27T03:52:46.982Z,1.60
2022-12-27T03:55:44.248Z,1.70
2022-12-27T03:58:41.111Z,1.70
2022-12-27T04:01:38.003Z,1.60
2022-12-27T04:04:35.567Z,1.60
2022-12-27T04:07:32.431Z,1.70
2022-12-27T04:10:47.667Z,1.70
2022-12-27T04:14:02.888Z,1.70
2022-12-27T04:17:17.969Z,1.60
2022-12-27T04:20:33.412Z,1.60
2022-12-27T04:23:48.905Z,1.70
2022-12-27T04:27:04.243Z,1.80
2022-12-27T04:30:19.655Z,1.80
2022-12-27T04:33:34.863Z,1.90
2022-12-27T04:36:32.772Z,1.80
2022-12-27T04:39:29.705Z,1.80
2022-12-27T04:42:44.832Z,1.80
2022-12-27T04:46:00.359Z,1.80
2022-12-27T04:49:15.763Z,1.70
2022-12-27T04:52:41.613Z,1.80
2022-12-27T04:55:38.423Z,1.70
2022-12-27T04:58:35.586Z,1.80
2022-12-27T05:01:51.054Z,1.80
2022-12-27T05:04:48.749Z,1.90
2022-12-27T05:08:04.072Z,2.00
2022-12-27T05:11:19.840Z,2.00
2022-12-27T05:14:16.675Z,2.00
2022-12-27T05:17:13.741Z,2.00
2022-12-27T05:20:11.349Z,2.00
2022-12-27T05:23:28.146Z,1.90
2022-12-27T05:26:29.356Z,1.80
2022-12-27T05:29:26.264Z,2.00
2022-12-27T05:32:23.065Z,1.90
2022-12-27T05:35:20.012Z,1.90
2022-12-27T05:38:16.935Z,1.90
2022-12-27T05:41:14.776Z,1.90
2022-12-27T05:44:11.600Z,2.00
2022-12-27T05:47:09.622Z,2.00
2022-12-27T05:50:07.792Z,2.00
2022-12-27T05:53:04.671Z,2.00
2022-12-27T05:56:01.542Z,2.00
2022-12-27T05:58:58.405Z,2.00
2022-12-27T06:01:55.463Z,2.00
2022-12-27T06:04:52.403Z,2.20
2022-12-27T06:07:49.289Z,2.10
2022-12-27T06:10:46.127Z,2.10
2022-12-27T06:13:48.981Z,2.10
2022-12-27T06:16:45.891Z,2.00
2022-12-27T06:19:42.723Z,2.10
2022-12-27T06:22:39.546Z,2.20
2022-12-27T06:25:38.744Z,2.10
2022-12-27T06:28:36.047Z,2.00
2022-12-27T06:31:32.875Z,2.10
2022-12-27T06:34:29.713Z,2.10
2022-12-27T06:37:26.535Z,2.10
2022-12-27T06:40:23.389Z,2.10
2022-12-27T06:43:20.207Z,2.20
2022-12-27T06:46:18.896Z,2.10
2022-12-27T06:49:15.816Z,2.10
2022-12-27T06:52:13.082Z,2.00
2022-12-27T06:55:10.166Z,2.10
2022-12-27T06:58:06.992Z,2.10
2022-12-27T07:01:10.426Z,2.10
2022-12-27T07:04:07.671Z,2.00
2022-12-27T07:07:04.645Z,2.10
2022-12-27T07:10:01.815Z,2.00
2022-12-27T07:12:58.720Z,2.10
2022-12-27T07:15:55.636Z,2.10
2022-12-27T07:18:54.387Z,2.10
2022-12-27T07:21:51.196Z,2.10
2022-12-27T07:24:48.051Z,2.10
2022-12-27T07:27:44.867Z,2.10
2022-12-27T07:30:42.750Z,2.00
2022-12-27T07:33:40.251Z,2.00
2022-12-27T07:36:40.993Z,2.00
2022-12-27T07:39:37.827Z,2.10
2022-12-27T07:42:34.643Z,2.10
2022-12-27T07:45:32.413Z,2.00
2022-12-27T07:48:29.224Z,2.10
2022-12-27T07:51:28.731Z,2.10
2022-12-27T07:54:25.600Z,2.10
2022-12-27T07:57:22.400Z,2.20
2022-12-27T08:00:19.413Z,2.20
2022-12-27T08:03:16.881Z,2.10
2022-12-27T08:06:27.520Z,2.10
2022-12-27T08:09:32.057Z,2.10
2022-12-27T08:12:29.016Z,2.10
2022-12-27T08:15:25.974Z,2.10
2022-12-27T08:18:22.858Z,2.20
2022-12-27T08:21:19.701Z,2.20
2022-12-27T08:24:16.515Z,2.20
2022-12-27T08:27:13.397Z,2.20
2022-12-27T08:30:10.978Z,2.20
2022-12-27T08:33:09.270Z,2.20
2022-12-27T08:36:36.707Z,2.30
2022-12-27T08:39:27.729Z,2.40
2022-12-27T08:42:24.815Z,2.30
2022-12-27T08:45:21.663Z,2.30
2022-12-27T08:48:18.517Z,2.20
2022-12-27T08:51:23.213Z,2.20
2022-12-27T08:54:27.147Z,2.20
2022-12-27T08:57:24.044Z,2.30
2022-12-27T09:00:20.881Z,2.40
2022-12-27T09:03:20.387Z,2.40
2022-12-27T09:06:21.720Z,2.40
2022-12-27T09:09:18.692Z,2.50
2022-12-27T09:12:15.546Z,2.50
2022-12-27T09:15:12.635Z,2.50
2022-12-27T09:18:10.867Z,2.50
2022-12-27T09:21:11.807Z,2.50
2022-12-27T09:24:13.506Z,2.60
2022-12-27T09:27:10.379Z,2.60
2022-12-27T09:30:09.123Z,2.60
2022-12-27T09:33:05.969Z,2.60
2022-12-27T09:36:09.792Z,2.60
2022-12-27T09:39:07.018Z,2.70
2022-12-27T09:42:52.118Z,2.70
2022-12-27T09:45:48.963Z,2.70
2022-12-27T09:48:47.835Z,2.70
2022-12-27T09:52:17.709Z,2.70
2022-12-27T09:55:28.421Z,2.70
2022-12-27T09:58:34.613Z,2.80
2022-12-27T10:01:40.360Z,2.90
2022-12-27T10:05:10.034Z,2.90
2022-12-27T10:08:29.793Z,2.90
2022-12-27T10:11:49.145Z,2.90
2022-12-27T10:14:58.472Z,3.10
2022-12-27T10:18:18.930Z,3.10
2022-12-27T10:21:25.540Z,3.20
2022-12-27T10:24:37.656Z,3.10
2022-12-27T10:27:35.330Z,3.10
2022-12-27T10:30:32.548Z,3.10
2022-12-27T10:33:34.575Z,3.10
2022-12-27T10:36:32.669Z,3.20
2022-12-27T10:39:33.228Z,3.30
2022-12-27T10:42:39.768Z,3.30
2022-12-27T10:45:40.057Z,3.40
2022-12-27T10:49:02.607Z,3.40
2022-12-27T10:52:16.561Z,3.40
2022-12-27T10:55:37.298Z,3.40
2022-12-27T10:58:56.445Z,3.30
2022-12-27T11:02:04.223Z,3.40
2022-12-27T11:05:01.619Z,3.40
2022-12-27T11:07:59.118Z,3.50
2022-12-27T11:11:16.425Z,3.50
2022-12-27T11:14:19.629Z,3.60
2022-12-27T11:17:18.023Z,3.60
2022-12-27T11:20:27.074Z,3.70
2022-12-27T11:23:29.535Z,3.70
2022-12-27T11:26:33.923Z,3.80
2022-12-27T11:29:32.616Z,4.00
2022-12-27T11:32:29.516Z,4.10
2022-12-27T11:35:26.362Z,4.30
2022-12-27T11:38:35.409Z,4.40
2022-12-27T11:41:53.646Z,4.30
2022-12-27T11:45:12.973Z,4.30
2022-12-27T11:48:33.308Z,4.30
2022-12-27T11:51:49.088Z,4.30
2022-12-27T11:55:23.977Z,4.30
2022-12-27T11:59:00.539Z,4.30
2022-12-27T12:02:32.140Z,4.50
2022-12-27T12:06:02.673Z,4.60
2022-12-27T12:09:11.985Z,4.50
2022-12-27T12:12:47.029Z,4.40
2022-12-27T12:16:40.588Z,4.50
2022-12-27T12:20:22.645Z,4.40
2022-12-27T12:23:50.100Z,4.40
2022-12-27T12:27:15.560Z,4.50
2022-12-27T12:30:27.870Z,4.50
2022-12-27T12:33:29.576Z,4.50
2022-12-27T12:36:36.559Z,4.60
2022-12-27T12:40:06.005Z,4.70
2022-12-27T12:43:14.289Z,4.60
2022-12-27T12:46:33.004Z,4.70
2022-12-27T12:49:49.490Z,4.60
2022-12-27T12:53:00.999Z,4.80
2022-12-27T12:56:15.539Z,4.80
2022-12-27T12:59:39.850Z,4.80
2022-12-27T13:03:00.720Z,4.90
2022-12-27T13:06:27.900Z,4.80
2022-12-27T13:10:14.778Z,4.90
2022-12-27T13:13:54.016Z,4.90
2022-12-27T13:17:09.941Z,4.80
2022-12-27T13:20:42.051Z,4.70
2022-12-27T13:24:05.828Z,4.60
2022-12-27T13:27:25.881Z,4.80
2022-12-27T13:30:30.700Z,4.90
2022-12-27T13:33:49.021Z,5.00
2022-12-27T13:37:24.033Z,5.00
2022-12-27T13:40:48.162Z,5.00
2022-12-27T13:44:22.399Z,4.80
2022-12-27T13:47:41.444Z,4.80
2022-12-27T13:50:45.296Z,4.80
2022-12-27T13:54:37.017Z,4.80
2022-12-27T13:58:37.434Z,4.80
2022-12-27T14:02:32.370Z,4.80
2022-12-27T14:05:41.386Z,4.90
2022-12-27T14:09:10.429Z,4.80
2022-12-27T14:12:32.015Z,4.80
2022-12-27T14:15:52.118Z,4.70
2022-12-27T14:19:32.808Z,4.60
2022-12-27T14:22:56.897Z,4.60
2022-12-27T14:26:23.390Z,4.70
2022-12-27T14:30:01.513Z,4.70
2022-12-27T14:33:40.068Z,4.60
2022-12-27T14:37:28.463Z,4.60
2022-12-27T14:41:02.017Z,4.50
2022-12-27T14:44:10.492Z,4.50
2022-12-27T14:47:51.010Z,4.40
2022-12-27T14:51:58.748Z,4.30
2022-12-27T14:55:26.331Z,4.20
2022-12-27T14:59:01.011Z,4.30
2022-12-27T15:02:32.805Z,4.20
2022-12-27T15:05:38.677Z,4.20
2022-12-27T15:09:06.847Z,4.30
2022-12-27T15:12:43.022Z,4.30
2022-12-27T15:16:15.267Z,4.20
2022-12-27T15:19:57.381Z,4.30
2022-12-27T15:23:40.829Z,4.20
2022-12-27T15:27:19.851Z,4.20
2022-12-27T15:30:39.825Z,4.10
2022-12-27T15:34:37.630Z,4.10
2022-12-27T15:38:19.596Z,4.10
2022-12-27T15:41:47.082Z,4.10
2022-12-27T15:45:22.606Z,4.10
2022-12-27T15:49:02.591Z,4.10
2022-12-27T15:52:11.372Z,4.20
2022-12-27T15:55:40.530Z,4.20
2022-12-27T15:58:38.132Z,4.10
2022-12-27T16:01:36.405Z,4.10
2022-12-27T16:04:47.858Z,4.10
2022-12-27T16:07:51.426Z,4.00
2022-12-27T16:10:50.568Z,4.10
2022-12-27T16:13:51.422Z,4.10
2022-12-27T16:16:56.373Z,4.10
2022-12-27T16:20:19.392Z,4.20
2022-12-27T16:23:37.400Z,4.10
2022-12-27T16:26:36.307Z,4.10
2022-12-27T16:29:36.716Z,4.20
2022-12-27T16:32:34.818Z,4.10
2022-12-27T16:35:32.593Z,4.00
2022-12-27T16:38:30.888Z,4.00
2022-12-27T16:41:27.643Z,4.00
2022-12-27T16:44:24.344Z,4.00
2022-12-27T16:47:42.548Z,3.90
2022-12-27T16:51:11.285Z,3.90
2022-12-27T16:54:27.000Z,3.80
2022-12-27T16:57:26.529Z,3.90
2022-12-27T17:00:38.934Z,3.90
2022-12-27T17:03:35.681Z,3.90
2022-12-27T17:06:33.961Z,3.90
2022-12-27T17:09:41.030Z,3.90
2022-12-27T17:12:37.892Z,3.80
2022-12-27T17:15:34.788Z,3.70
2022-12-27T17:18:57.966Z,3.70
2022-12-27T17:22:02.759Z,3.70
2022-12-27T17:25:00.035Z,3.70
2022-12-27T17:28:17.969Z,3.70
2022-12-27T17:31:52.459Z,3.70
2022-12-27T17:34:58.107Z,3.60
2022-12-27T17:38:08.026Z,3.60
2022-12-27T17:42:08.988Z,3.60
2022-12-27T17:45:08.944Z,3.60
2022-12-27T17:48:21.746Z,3.60
2022-12-27T17:51:26.569Z,3.50
2022-12-27T17:54:44.148Z,3.60
2022-12-27T17:57:56.161Z,3.50
2022-12-27T18:01:00.213Z,3.60
2022-12-27T18:03:59.578Z,3.60
2022-12-27T18:07:03.959Z,3.70
2022-12-27T18:10:25.144Z,3.60
2022-12-27T18:13:26.867Z,3.50
2022-12-27T18:16:37.845Z,3.50
2022-12-27T18:19:34.735Z,3.50
2022-12-27T18:22:31.549Z,3.50
2022-12-27T18:25:44.541Z,3.50
2022-12-27T18:28:42.781Z,3.50
2022-12-27T18:31:49.856Z,3.40
2022-12-27T18:34:53.589Z,3.40
2022-12-27T18:37:51.319Z,3.50
2022-12-27T18:41:12.791Z,3.50
2022-12-27T18:44:23.026Z,3.70
2022-12-27T18:47:27.187Z,3.70
2022-12-27T18:50:28.995Z,3.70
2022-12-27T18:53:36.877Z,3.60
2022-12-27T18:56:34.979Z,3.50
2022-12-27T18:59:36.141Z,3.60
2022-12-27T19:02:36.248Z,3.50
2022-12-27T19:05:36.327Z,3.50
2022-12-27T19:08:47.826Z,3.50
2022-12-27T19:12:03.883Z,3.60
2022-12-27T19:15:01.874Z,3.50
2022-12-27T19:18:03.831Z,3.50
2022-12-27T19:21:03.223Z,3.50
2022-12-27T19:24:28.728Z,3.50
2022-12-27T19:27:25.753Z,3.60
2022-12-27T19:30:40.586Z,3.50
2022-12-27T19:33:37.502Z,3.50
2022-12-27T19:36:39.731Z,3.60
2022-12-27T19:39:38.896Z,3.60
2022-12-27T19:42:35.797Z,3.60
2022-12-27T19:45:32.654Z,3.60
2022-12-27T19:48:29.509Z,3.50
2022-12-27T19:51:28.278Z,3.60
2022-12-27T19:54:25.612Z,3.60
2022-12-27T19:57:22.603Z,3.60
2022-12-27T20:00:20.495Z,3.60
2022-12-27T20:03:17.383Z,3.50
2022-12-27T20:06:20.800Z,3.50
2022-12-27T20:09:22.157Z,3.50
2022-12-27T20:12:19.598Z,3.50
2022-12-27T20:15:16.530Z,3.40
2022-12-27T20:18:14.196Z,3.40
2022-12-27T20:21:19.437Z,3.40
2022-12-27T20:24:16.309Z,3.30
2022-12-27T20:27:13.163Z,3.30
2022-12-27T20:30:11.149Z,3.30
2022-12-27T20:33:08.951Z,3.40
2022-12-27T20:36:06.657Z,3.40
2022-12-27T20:39:03.780Z,3.50
2022-12-27T20:42:01.288Z,3.50
2022-12-27T20:44:58.132Z,3.40
2022-12-27T20:47:54.943Z,3.40
2022-12-27T20:50:51.807Z,3.40
2022-12-27T20:53:53.867Z,3.40
2022-12-27T20:56:50.715Z,3.40
2022-12-27T20:59:47.996Z,3.30
2022-12-27T21:02:45.132Z,3.30
2022-12-27T21:05:42.072Z,3.30
2022-12-27T21:08:46.646Z,3.40
2022-12-27T21:11:46.191Z,3.30
2022-12-27T21:14:43.170Z,3.40
2022-12-27T21:17:40.016Z,3.40
2022-12-27T21:20:36.867Z,3.40
2022-12-27T21:23:36.817Z,3.30
2022-12-27T21:26:37.075Z,3.30
2022-12-27T21:29:33.925Z,3.20
2022-12-27T21:32:30.981Z,3.20
2022-12-27T21:35:27.821Z,3.30
2022-12-27T21:38:25.325Z,3.30
2022-12-27T21:41:38.000Z,3.30
2022-12-27T21:44:36.900Z,3.30
2022-12-27T21:47:33.919Z,3.30
2022-12-27T21:50:37.071Z,3.30
2022-12-27T21:53:34.921Z,3.30
2022-12-27T21:56:32.052Z,3.40
2022-12-27T21:59:28.890Z,3.30
2022-12-27T22:02:25.937Z,3.20
2022-12-27T22:05:22.866Z,3.30
2022-12-27T22:08:19.704Z,3.40
2022-12-27T22:11:18.214Z,3.40
2022-12-27T22:14:15.349Z,3.30
2022-12-27T22:17:12.217Z,3.30
2022-12-27T22:20:10.053Z,3.30
2022-12-27T22:23:07.830Z,3.20
2022-12-27T22:26:09.164Z,3.30
2022-12-27T22:29:06.579Z,3.20
2022-12-27T22:32:03.777Z,3.30
2022-12-27T22:35:00.642Z,3.30
2022-12-27T22:37:57.856Z,3.40
2022-12-27T22:40:54.692Z,3.30
2022-12-27T22:44:03.509Z,3.30
2022-12-27T22:47:26.367Z,3.30
2022-12-27T22:50:18.225Z,3.30
2022-12-27T22:53:15.063Z,3.30
2022-12-27T22:56:22.623Z,3.30
2022-12-27T22:59:19.456Z,3.30
2022-12-27T23:02:16.532Z,3.30
2022-12-27T23:05:13.469Z,3.40
2022-12-27T23:08:10.276Z,3.40
2022-12-27T23:11:19.139Z,3.40
2022-12-27T23:14:16.793Z,3.40
2022-12-27T23:17:14.334Z,3.30
2022-12-27T23:20:11.978Z,3.20
2022-12-27T23:23:08.796Z,3.30
2022-12-27T23:26:09.313Z,3.30
2022-12-27T23:29:06.681Z,3.30
2022-12-27T23:32:03.782Z,3.30
2022-12-27T23:35:00.674Z,3.30
2022-12-27T23:37:57.494Z,3.40
2022-12-27T23:40:56.676Z,3.40
2022-12-27T23:43:55.824Z,3.40
2022-12-27T23:46:53.071Z,3.40
2022-12-27T23:49:50.073Z,3.30
2022-12-27T23:52:46.921Z,3.40
2022-12-27T23:55:43.821Z,3.30
2022-12-27T23:58:40.684Z,3.30
